createdAt,value
2023-02-11T00:00:04.780Z,77.67
2023-02-11T00:00:41.028Z,75.53
2023-02-11T00:01:25.405Z,77.37
2023-02-11T00:01:57.240Z,85.03
2023-02-11T00:02:29.801Z,92.83
2023-02-11T00:03:01.658Z,78.93
2023-02-11T00:03:33.490Z,77.90
2023-02-11T00:04:06.977Z,76.93
2023-02-11T00:04:38.716Z,75.50
2023-02-11T00:05:10.920Z,74.03
2023-02-11T00:05:42.703Z,70.33
2023-02-11T00:06:14.804Z,63.70
2023-02-11T00:06:46.562Z,61.63
2023-02-11T00:07:18.324Z,58.90
2023-02-11T00:07:50.094Z,61.20
2023-02-11T00:08:21.839Z,62.13
2023-02-11T00:08:54.594Z,65.63
2023-02-11T00:09:26.378Z,68.97
2023-02-11T00:09:58.159Z,70.27
2023-02-11T00:10:29.871Z,71.57
2023-02-11T00:11:01.768Z,61.60
2023-02-11T00:11:34.538Z,59.33
2023-02-11T00:12:06.511Z,57.87
2023-02-11T00:12:38.703Z,57.70
2023-02-11T00:13:10.449Z,58.53
2023-02-11T00:13:43.724Z,61.60
2023-02-11T00:14:15.658Z,61.67
2023-02-11T00:14:47.688Z,63.17
2023-02-11T00:15:21.273Z,63.63
2023-02-11T00:15:54.221Z,61.27
2023-02-11T00:16:26.624Z,57.07
2023-02-11T00:16:58.587Z,60.00
2023-02-11T00:17:30.470Z,59.47
2023-02-11T00:18:02.264Z,62.20
2023-02-11T00:18:34.090Z,62.17
2023-02-11T00:19:06.764Z,61.27
2023-02-11T00:19:38.522Z,58.00
2023-02-11T00:20:10.559Z,55.40
2023-02-11T00:20:43.225Z,54.93
2023-02-11T00:21:17.938Z,56.87
2023-02-11T00:21:49.676Z,56.80
2023-02-11T00:22:21.557Z,57.80
2023-02-11T00:22:53.351Z,58.30
2023-02-11T00:23:25.271Z,58.87
2023-02-11T00:23:59.836Z,56.03
2023-02-11T00:24:31.682Z,58.87
2023-02-11T00:25:03.857Z,58.30
2023-02-11T00:25:41.066Z,59.13
2023-02-11T00:26:22.181Z,60.67
2023-02-11T00:26:53.920Z,56.47
2023-02-11T00:27:25.709Z,59.17
2023-02-11T00:27:57.645Z,59.50
2023-02-11T00:28:29.792Z,57.27
2023-02-11T00:29:02.619Z,55.70
2023-02-11T00:29:34.369Z,58.90
2023-02-11T00:30:06.633Z,59.33
2023-02-11T00:30:38.641Z,58.37
2023-02-11T00:31:11.119Z,57.13
2023-02-11T00:31:43.073Z,57.17
2023-02-11T00:32:14.957Z,58.97
2023-02-11T00:32:47.044Z,58.37
2023-02-11T00:33:18.891Z,58.67
2023-02-11T00:33:51.622Z,57.97
2023-02-11T00:34:23.852Z,57.73
2023-02-11T00:34:55.734Z,58.43
2023-02-11T00:35:27.880Z,60.87
2023-02-11T00:36:04.561Z,59.47
2023-02-11T00:36:36.322Z,60.30
2023-02-11T00:37:08.102Z,61.73
2023-02-11T00:37:39.976Z,61.27
2023-02-11T00:38:11.804Z,61.60
2023-02-11T00:38:44.944Z,65.00
2023-02-11T00:39:16.714Z,63.70
2023-02-11T00:39:50.208Z,60.53
2023-02-11T00:40:22.678Z,57.23
2023-02-11T00:40:54.476Z,60.83
2023-02-11T00:41:27.057Z,55.53
2023-02-11T00:41:59.244Z,53.87
2023-02-11T00:42:31.086Z,54.57
2023-02-11T00:43:02.852Z,54.50
2023-02-11T00:43:35.821Z,56.60
2023-02-11T00:44:07.660Z,58.20
2023-02-11T00:44:39.501Z,59.30
2023-02-11T00:45:12.526Z,65.37
2023-02-11T00:45:44.309Z,64.43
2023-02-11T00:46:16.312Z,58.23
2023-02-11T00:46:48.233Z,56.73
2023-02-11T00:47:19.954Z,58.63
2023-02-11T00:47:51.742Z,63.13
2023-02-11T00:48:23.515Z,66.93
2023-02-11T00:48:57.883Z,70.63
2023-02-11T00:49:29.763Z,69.63
2023-02-11T00:50:02.347Z,69.93
2023-02-11T00:50:34.116Z,78.53
2023-02-11T00:51:06.847Z,87.80
2023-02-11T00:51:38.688Z,92.37
2023-02-11T00:52:10.537Z,92.43
2023-02-11T00:52:42.560Z,88.50
2023-02-11T00:53:14.357Z,95.40
2023-02-11T00:53:46.183Z,100.60
2023-02-11T00:54:17.958Z,108.13
2023-02-11T00:54:49.808Z,108.90
2023-02-11T00:55:21.618Z,106.50
2023-02-11T00:55:53.562Z,109.77
2023-02-11T00:56:25.490Z,111.77
2023-02-11T00:56:57.219Z,116.20
2023-02-11T00:57:28.986Z,120.17
2023-02-11T00:58:00.710Z,121.77
2023-02-11T00:58:32.494Z,121.40
2023-02-11T00:59:04.480Z,117.10
2023-02-11T00:59:36.399Z,115.63
2023-02-11T01:00:10.025Z,118.80
2023-02-11T01:00:41.758Z,118.97
2023-02-11T01:01:14.074Z,119.63
2023-02-11T01:01:45.870Z,120.00
2023-02-11T01:02:18.103Z,121.63
2023-02-11T01:02:49.898Z,120.60
2023-02-11T01:03:21.732Z,120.20
2023-02-11T01:03:53.555Z,124.47
2023-02-11T01:04:25.443Z,124.30
2023-02-11T01:04:58.596Z,125.20
2023-02-11T01:05:30.511Z,117.43
2023-02-11T01:06:02.383Z,98.50
2023-02-11T01:06:34.204Z,97.53
2023-02-11T01:07:06.198Z,107.67
2023-02-11T01:07:37.984Z,114.30
2023-02-11T01:08:09.835Z,117.10
2023-02-11T01:08:41.818Z,111.17
2023-02-11T01:09:13.573Z,102.67
2023-02-11T01:09:45.402Z,102.70
2023-02-11T01:10:17.407Z,109.37
2023-02-11T01:11:17.180Z,113.70
2023-02-11T01:11:48.945Z,110.63
2023-02-11T01:12:20.906Z,113.17
2023-02-11T01:12:52.750Z,101.00
2023-02-11T01:13:26.146Z,110.30
2023-02-11T01:13:57.877Z,112.00
2023-02-11T01:14:29.672Z,111.67
2023-02-11T01:15:01.469Z,115.27
2023-02-11T01:15:33.582Z,119.93
2023-02-11T01:16:10.237Z,118.73
2023-02-11T01:16:42.091Z,125.47
2023-02-11T01:17:13.885Z,127.37
2023-02-11T01:17:45.878Z,131.07
2023-02-11T01:18:17.843Z,132.13
2023-02-11T01:18:49.599Z,132.30
2023-02-11T01:19:21.415Z,133.53
2023-02-11T01:19:53.215Z,128.60
2023-02-11T01:20:28.570Z,131.83
2023-02-11T01:21:00.416Z,136.97
2023-02-11T01:21:32.371Z,138.97
2023-02-11T01:22:05.036Z,136.97
2023-02-11T01:22:39.645Z,139.83
2023-02-11T01:23:11.814Z,139.10
2023-02-11T01:23:43.653Z,138.30
2023-02-11T01:24:15.410Z,140.77
2023-02-11T01:24:47.497Z,137.73
2023-02-11T01:25:19.472Z,140.07
2023-02-11T01:25:51.545Z,137.60
2023-02-11T01:26:23.492Z,129.30
2023-02-11T01:26:55.443Z,132.57
2023-02-11T01:27:27.200Z,136.97
2023-02-11T01:27:59.037Z,135.37
2023-02-11T01:28:31.727Z,137.27
2023-02-11T01:29:03.875Z,137.03
2023-02-11T01:29:35.567Z,135.50
2023-02-11T01:30:09.682Z,136.43
2023-02-11T01:30:41.456Z,132.97
2023-02-11T01:31:14.249Z,132.53
2023-02-11T01:31:46.120Z,134.20
2023-02-11T01:32:18.010Z,132.70
2023-02-11T01:32:49.821Z,130.57
2023-02-11T01:33:22.669Z,128.60
2023-02-11T01:33:54.450Z,129.47
2023-02-11T01:34:26.217Z,130.97
2023-02-11T01:34:58.015Z,132.70
2023-02-11T01:35:29.877Z,131.73
2023-02-11T01:36:03.599Z,131.57
2023-02-11T01:36:35.321Z,133.03
2023-02-11T01:37:07.309Z,132.00
2023-02-11T01:37:39.185Z,130.77
2023-02-11T01:38:26.211Z,127.67
2023-02-11T01:38:57.990Z,124.33
2023-02-11T01:39:34.106Z,125.30
2023-02-11T01:40:08.568Z,128.53
2023-02-11T01:40:40.367Z,129.80
2023-02-11T01:41:14.909Z,131.67
2023-02-11T01:41:46.691Z,130.40
2023-02-11T01:42:20.892Z,129.50
2023-02-11T01:42:52.715Z,124.57
2023-02-11T01:43:26.446Z,125.33
2023-02-11T01:43:58.262Z,130.93
2023-02-11T01:44:37.011Z,127.40
2023-02-11T01:45:46.312Z,126.63
2023-02-11T01:46:24.009Z,134.63
2023-02-11T01:46:55.959Z,132.13
2023-02-11T01:47:27.715Z,129.87
2023-02-11T01:48:02.522Z,130.77
2023-02-11T01:48:39.001Z,131.33
2023-02-11T01:49:21.841Z,131.90
2023-02-11T01:49:59.193Z,130.33
2023-02-11T01:50:31.830Z,133.73
2023-02-11T01:51:49.581Z,134.43
2023-02-11T01:52:31.214Z,137.53
2023-02-11T01:53:22.987Z,134.80
2023-02-11T01:54:15.718Z,142.37
2023-02-11T01:55:10.558Z,149.03
2023-02-11T01:56:01.164Z,148.30
2023-02-11T01:56:55.879Z,148.47
2023-02-11T01:57:31.473Z,147.57
2023-02-11T01:58:05.388Z,148.27
2023-02-11T01:58:42.038Z,144.60
2023-02-11T01:59:22.752Z,140.50
2023-02-11T02:00:10.303Z,133.57
2023-02-11T02:00:43.144Z,130.10
2023-02-11T02:01:23.391Z,134.50
2023-02-11T02:02:00.946Z,138.23
2023-02-11T02:03:08.115Z,134.63
2023-02-11T02:03:45.482Z,129.23
2023-02-11T02:04:19.849Z,134.77
2023-02-11T02:04:58.826Z,134.47
2023-02-11T02:05:37.265Z,132.37
2023-02-11T02:06:45.954Z,136.50
2023-02-11T02:07:31.459Z,136.17
2023-02-11T02:08:09.188Z,135.70
2023-02-11T02:09:01.102Z,136.93
2023-02-11T02:09:40.514Z,138.47
2023-02-11T02:10:19.612Z,135.07
2023-02-11T02:10:56.630Z,135.43
2023-02-11T02:11:28.390Z,137.60
2023-02-11T02:12:00.449Z,133.70
2023-02-11T02:12:32.283Z,137.47
2023-02-11T02:13:04.228Z,138.67
2023-02-11T02:13:36.496Z,138.00
2023-02-11T02:14:08.248Z,136.13
2023-02-11T02:14:41.824Z,137.60
2023-02-11T02:15:29.575Z,136.73
2023-02-11T02:16:04.770Z,139.73
2023-02-11T02:16:38.037Z,137.93
2023-02-11T02:17:27.719Z,135.43
2023-02-11T02:18:07.276Z,125.20
2023-02-11T02:19:00.609Z,125.83
2023-02-11T02:20:02.669Z,130.50
2023-02-11T02:21:09.011Z,127.50
2023-02-11T02:22:14.300Z,127.87
2023-02-11T02:23:17.243Z,136.53
2023-02-11T02:24:22.255Z,132.07
2023-02-11T02:25:01.194Z,137.17
2023-02-11T02:25:51.214Z,135.67
2023-02-11T02:27:04.126Z,133.90
2023-02-11T02:28:03.039Z,133.40
2023-02-11T02:29:14.673Z,134.93
2023-02-11T02:30:03.772Z,123.70
2023-02-11T02:31:09.064Z,119.63
2023-02-11T02:31:50.081Z,127.47
2023-02-11T02:32:43.688Z,127.23
2023-02-11T02:33:34.787Z,133.60
2023-02-11T02:34:48.678Z,131.03
2023-02-11T02:35:52.628Z,114.20
2023-02-11T02:36:34.492Z,116.07
2023-02-11T02:37:31.671Z,124.70
2023-02-11T02:38:14.505Z,133.30
2023-02-11T02:38:57.901Z,129.23
2023-02-11T02:39:34.655Z,132.00
2023-02-11T02:40:36.944Z,135.20
2023-02-11T02:41:13.131Z,137.77
2023-02-11T02:41:47.306Z,130.30
2023-02-11T02:42:21.489Z,129.97
2023-02-11T02:42:55.127Z,127.87
2023-02-11T02:43:27.947Z,126.33
2023-02-11T02:44:00.253Z,126.07
2023-02-11T02:44:32.502Z,127.73
2023-02-11T02:45:04.920Z,134.40
2023-02-11T02:45:36.827Z,133.43
2023-02-11T02:46:27.221Z,134.23
2023-02-11T02:46:59.111Z,131.33
2023-02-11T02:47:30.893Z,131.77
2023-02-11T02:48:02.626Z,131.83
2023-02-11T02:48:38.099Z,136.67
2023-02-11T02:49:15.031Z,133.13
2023-02-11T02:49:46.795Z,130.60
2023-02-11T02:50:30.295Z,128.63
2023-02-11T02:51:32.230Z,133.83
2023-02-11T02:52:56.179Z,135.10
2023-02-11T02:53:38.848Z,123.07
2023-02-11T02:54:22.412Z,125.03
2023-02-11T02:55:28.234Z,129.83
2023-02-11T02:56:32.772Z,120.90
2023-02-11T02:57:32.799Z,121.03
2023-02-11T02:58:07.483Z,116.97
2023-02-11T02:58:48.009Z,116.87
2023-02-11T02:59:25.452Z,121.97
2023-02-11T03:00:21.922Z,123.00
2023-02-11T03:01:20.915Z,123.60
2023-02-11T03:02:24.915Z,121.57
2023-02-11T03:03:15.813Z,120.33
2023-02-11T03:04:06.586Z,120.03
2023-02-11T03:04:53.006Z,122.93
2023-02-11T03:05:57.295Z,120.13
2023-02-11T03:06:44.738Z,119.57
2023-02-11T03:08:05.776Z,121.17
2023-02-11T03:08:57.138Z,121.00
2023-02-11T03:09:39.198Z,121.93
2023-02-11T03:10:41.270Z,124.63
2023-02-11T03:11:18.676Z,122.63
2023-02-11T03:11:50.560Z,119.80
2023-02-11T03:12:24.913Z,120.33
2023-02-11T03:12:57.788Z,121.00
2023-02-11T03:13:34.085Z,123.60
2023-02-11T03:14:10.773Z,125.80
2023-02-11T03:14:42.751Z,123.97
2023-02-11T03:15:17.697Z,124.17
2023-02-11T03:15:54.120Z,127.30
2023-02-11T03:16:28.513Z,120.67
2023-02-11T03:17:05.240Z,122.73
2023-02-11T03:17:42.852Z,123.23
2023-02-11T03:18:19.263Z,122.47
2023-02-11T03:19:10.559Z,124.03
2023-02-11T03:19:46.368Z,122.67
2023-02-11T03:20:22.492Z,125.03
2023-02-11T03:20:56.328Z,125.17
2023-02-11T03:21:32.645Z,129.47
2023-02-11T03:22:11.981Z,127.30
2023-02-11T03:22:52.752Z,119.73
2023-02-11T03:23:39.014Z,121.70
2023-02-11T03:24:30.698Z,118.97
2023-02-11T03:25:03.381Z,116.13
2023-02-11T03:25:42.146Z,111.93
2023-02-11T03:26:25.516Z,115.33
2023-02-11T03:27:03.790Z,119.20
2023-02-11T03:27:41.626Z,119.00
2023-02-11T03:28:39.197Z,123.23
2023-02-11T03:29:33.126Z,117.70
2023-02-11T03:30:09.952Z,118.27
2023-02-11T03:31:01.240Z,120.50
2023-02-11T03:32:06.007Z,118.67
2023-02-11T03:32:52.555Z,101.90
2023-02-11T03:33:35.813Z,95.17
2023-02-11T03:34:10.027Z,108.10
2023-02-11T03:34:44.769Z,98.90
2023-02-11T03:35:32.770Z,95.93
2023-02-11T03:36:15.540Z,106.97
2023-02-11T03:36:58.974Z,101.70
2023-02-11T03:37:39.916Z,95.37
2023-02-11T03:38:39.410Z,104.40
2023-02-11T03:39:16.094Z,110.87
2023-02-11T03:40:03.597Z,95.77
2023-02-11T03:40:41.578Z,92.13
2023-02-11T03:41:17.800Z,107.60
2023-02-11T03:41:52.790Z,103.50
2023-02-11T03:42:30.906Z,98.20
2023-02-11T03:43:20.195Z,97.77
2023-02-11T03:43:58.324Z,101.67
2023-02-11T03:44:37.027Z,91.67
2023-02-11T03:45:14.014Z,103.10
2023-02-11T03:45:51.189Z,106.70
2023-02-11T03:46:31.052Z,112.17
2023-02-11T03:47:08.074Z,113.60
2023-02-11T03:47:46.423Z,113.23
2023-02-11T03:48:31.215Z,108.63
2023-02-11T03:49:11.655Z,104.37
2023-02-11T03:49:49.306Z,108.20
2023-02-11T03:50:23.396Z,110.90
2023-02-11T03:50:58.769Z,111.67
2023-02-11T03:51:33.022Z,110.43
2023-02-11T03:52:07.903Z,111.80
2023-02-11T03:52:39.948Z,112.00
2023-02-11T03:53:14.609Z,112.10
2023-02-11T03:53:47.756Z,102.17
2023-02-11T03:54:29.307Z,101.13
2023-02-11T03:55:06.079Z,94.77
2023-02-11T03:55:40.486Z,89.10
2023-02-11T03:56:21.653Z,103.27
2023-02-11T03:56:56.970Z,100.93
2023-02-11T03:57:28.886Z,93.00
2023-02-11T03:58:01.119Z,109.77
2023-02-11T03:58:32.856Z,112.73
2023-02-11T03:59:04.700Z,98.60
2023-02-11T03:59:56.086Z,91.40
2023-02-11T04:00:37.194Z,86.53
2023-02-11T04:01:10.004Z,85.53
2023-02-11T04:01:42.042Z,79.80
2023-02-11T04:02:13.778Z,89.63
2023-02-11T04:02:45.838Z,103.23
2023-02-11T04:03:17.812Z,109.80
2023-02-11T04:03:49.684Z,114.53
2023-02-11T04:04:21.507Z,114.30
2023-02-11T04:04:53.630Z,107.67
2023-02-11T04:05:25.774Z,91.37
2023-02-11T04:05:57.567Z,83.60
2023-02-11T04:06:29.343Z,99.53
2023-02-11T04:07:01.058Z,107.97
2023-02-11T04:07:33.263Z,109.30
2023-02-11T04:08:05.577Z,104.63
2023-02-11T04:08:37.404Z,103.87
2023-02-11T04:09:10.289Z,108.40
2023-02-11T04:09:42.379Z,106.67
2023-02-11T04:10:14.408Z,108.33
2023-02-11T04:10:46.348Z,109.73
2023-02-11T04:11:18.182Z,110.17
2023-02-11T04:11:49.943Z,112.50
2023-02-11T04:12:22.224Z,108.80
2023-02-11T04:12:54.032Z,106.73
2023-02-11T04:13:27.259Z,110.73
2023-02-11T04:13:58.996Z,108.70
2023-02-11T04:14:30.736Z,108.27
2023-02-11T04:15:02.478Z,106.27
2023-02-11T04:15:34.430Z,109.63
2023-02-11T04:16:06.320Z,110.43
2023-02-11T04:16:38.149Z,110.63
2023-02-11T04:17:11.064Z,111.07
2023-02-11T04:17:43.176Z,111.20
2023-02-11T04:18:15.116Z,108.00
2023-02-11T04:18:46.893Z,102.90
2023-02-11T04:19:18.847Z,88.30
2023-02-11T04:19:50.638Z,88.70
2023-02-11T04:20:22.421Z,91.63
2023-02-11T04:20:54.149Z,95.73
2023-02-11T04:21:25.954Z,108.40
2023-02-11T04:21:57.923Z,106.90
2023-02-11T04:22:30.370Z,102.13
2023-02-11T04:23:02.158Z,91.70
2023-02-11T04:23:33.970Z,77.77
2023-02-11T04:24:05.904Z,90.57
2023-02-11T04:24:37.774Z,107.70
2023-02-11T04:25:10.083Z,109.93
2023-02-11T04:25:42.978Z,105.00
2023-02-11T04:26:14.887Z,109.37
2023-02-11T04:26:46.747Z,108.73
2023-02-11T04:27:18.564Z,102.90
2023-02-11T04:27:50.349Z,100.03
2023-02-11T04:28:22.266Z,94.63
2023-02-11T04:28:54.052Z,98.93
2023-02-11T04:29:25.795Z,95.80
2023-02-11T04:29:57.558Z,85.47
2023-02-11T04:30:29.304Z,81.03
2023-02-11T04:31:01.120Z,75.27
2023-02-11T04:31:33.062Z,84.93
2023-02-11T04:32:05.153Z,79.57
2023-02-11T04:32:37.019Z,73.47
2023-02-11T04:33:08.790Z,75.70
2023-02-11T04:33:40.604Z,82.43
2023-02-11T04:34:12.562Z,81.30
2023-02-11T04:34:44.670Z,79.33
2023-02-11T04:35:16.597Z,78.43
2023-02-11T04:35:48.812Z,72.90
2023-02-11T04:36:20.876Z,72.97
2023-02-11T04:36:52.654Z,83.87
2023-02-11T04:37:24.493Z,88.30
2023-02-11T04:37:56.328Z,85.07
2023-02-11T04:38:28.212Z,75.03
2023-02-11T04:39:00.044Z,70.73
2023-02-11T04:39:31.870Z,73.83
2023-02-11T04:40:04.067Z,75.17
2023-02-11T04:40:35.876Z,77.17
2023-02-11T04:41:07.655Z,83.43
2023-02-11T04:41:39.463Z,84.90
2023-02-11T04:42:11.331Z,82.70
2023-02-11T04:42:43.275Z,82.67
2023-02-11T04:43:15.168Z,80.63
2023-02-11T04:43:46.922Z,79.03
2023-02-11T04:44:18.699Z,81.63
2023-02-11T04:44:50.509Z,82.60
2023-02-11T04:45:22.285Z,84.10
2023-02-11T04:45:58.805Z,86.73
2023-02-11T04:46:30.902Z,89.30
2023-02-11T04:47:02.684Z,92.87
2023-02-11T04:47:34.798Z,92.33
2023-02-11T04:48:06.560Z,91.93
2023-02-11T04:48:38.353Z,91.70
2023-02-11T04:49:14.212Z,94.60
2023-02-11T04:49:46.024Z,95.30
2023-02-11T04:50:17.906Z,96.13
2023-02-11T04:50:49.654Z,95.63
2023-02-11T04:51:21.437Z,91.63
2023-02-11T04:51:53.225Z,93.93
2023-02-11T04:52:25.064Z,99.43
2023-02-11T04:52:57.060Z,100.53
2023-02-11T04:53:28.873Z,98.80
2023-02-11T04:54:00.692Z,94.07
2023-02-11T04:54:32.506Z,93.50
2023-02-11T04:55:04.663Z,94.53
2023-02-11T04:55:36.455Z,93.33
2023-02-11T04:56:08.407Z,95.77
2023-02-11T04:56:40.263Z,96.07
2023-02-11T04:57:12.026Z,95.57
2023-02-11T04:57:43.871Z,93.47
2023-02-11T04:58:15.632Z,93.23
2023-02-11T04:58:47.435Z,93.93
2023-02-11T04:59:19.180Z,94.97
2023-02-11T04:59:51.158Z,99.67
2023-02-11T05:00:23.076Z,102.50
2023-02-11T05:00:54.912Z,112.87
2023-02-11T05:01:26.809Z,116.37
2023-02-11T05:01:58.671Z,108.57
2023-02-11T05:02:30.375Z,106.43
2023-02-11T05:03:02.103Z,104.77
2023-02-11T05:03:34.007Z,104.37
2023-02-11T05:04:05.819Z,111.97
2023-02-11T05:04:37.618Z,111.00
2023-02-11T05:05:09.413Z,105.37
2023-02-11T05:05:42.668Z,103.37
2023-02-11T05:06:14.476Z,107.10
2023-02-11T05:06:46.323Z,109.80
2023-02-11T05:07:18.115Z,107.97
2023-02-11T05:07:49.942Z,107.40
2023-02-11T05:08:21.647Z,105.33
2023-02-11T05:08:53.370Z,107.63
2023-02-11T05:09:25.245Z,107.53
2023-02-11T05:09:56.994Z,113.13
2023-02-11T05:10:28.754Z,115.77
2023-02-11T05:11:02.280Z,120.60
2023-02-11T05:11:34.464Z,121.47
2023-02-11T05:12:06.464Z,118.87
2023-02-11T05:12:38.276Z,113.87
2023-02-11T05:13:09.994Z,112.60
2023-02-11T05:13:41.729Z,112.43
2023-02-11T05:14:13.466Z,108.90
2023-02-11T05:14:45.327Z,108.57
2023-02-11T05:15:17.204Z,110.40
2023-02-11T05:15:49.403Z,108.13
2023-02-11T05:16:21.618Z,107.43
2023-02-11T05:16:53.503Z,109.33
2023-02-11T05:17:25.274Z,111.80
2023-02-11T05:17:57.023Z,110.10
2023-02-11T05:18:28.734Z,105.80
2023-02-11T05:19:00.503Z,105.27
2023-02-11T05:19:32.458Z,109.13
2023-02-11T05:20:04.502Z,108.27
2023-02-11T05:20:38.948Z,104.07
2023-02-11T05:21:14.213Z,105.00
2023-02-11T05:22:01.365Z,110.73
2023-02-11T05:22:33.456Z,113.17
2023-02-11T05:23:05.217Z,105.63
2023-02-11T05:23:37.590Z,106.97
2023-02-11T05:24:09.447Z,114.87
2023-02-11T05:24:41.286Z,111.07
2023-02-11T05:25:13.272Z,113.47
2023-02-11T05:25:44.998Z,112.73
2023-02-11T05:26:17.568Z,108.87
2023-02-11T05:26:49.474Z,105.63
2023-02-11T05:27:21.400Z,104.73
2023-02-11T05:27:53.146Z,107.33
2023-02-11T05:28:25.087Z,107.57
2023-02-11T05:28:56.964Z,109.53
2023-02-11T05:29:28.862Z,110.90
2023-02-11T05:30:00.625Z,103.37
2023-02-11T05:30:33.103Z,98.37
2023-02-11T05:31:07.867Z,103.37
2023-02-11T05:31:39.667Z,104.97
2023-02-11T05:32:12.258Z,103.83
2023-02-11T05:32:44.030Z,108.13
2023-02-11T05:33:15.832Z,108.27
2023-02-11T05:33:47.659Z,104.33
2023-02-11T05:34:19.663Z,110.77
2023-02-11T05:34:51.429Z,108.40
2023-02-11T05:35:23.319Z,119.27
2023-02-11T05:36:07.792Z,121.27
2023-02-11T05:36:39.574Z,116.80
2023-02-11T05:37:11.488Z,113.00
2023-02-11T05:37:43.633Z,111.73
2023-02-11T05:38:15.424Z,102.63
2023-02-11T05:38:47.247Z,96.20
2023-02-11T05:39:19.097Z,93.57
2023-02-11T05:39:50.822Z,93.10
2023-02-11T05:40:22.598Z,95.93
2023-02-11T05:40:54.544Z,96.90
2023-02-11T05:41:26.389Z,100.43
2023-02-11T05:41:58.143Z,101.73
2023-02-11T05:42:29.874Z,109.87
2023-02-11T05:43:01.719Z,109.07
2023-02-11T05:43:35.445Z,103.27
2023-02-11T05:44:07.265Z,100.13
2023-02-11T05:44:39.188Z,99.90
2023-02-11T05:45:11.036Z,96.50
2023-02-11T05:45:42.809Z,95.83
2023-02-11T05:46:14.549Z,92.63
2023-02-11T05:46:46.493Z,96.57
2023-02-11T05:47:18.351Z,94.97
2023-02-11T05:47:50.149Z,91.00
2023-02-11T05:48:22.086Z,90.40
2023-02-11T05:48:54.140Z,100.57
2023-02-11T05:49:26.060Z,106.90
2023-02-11T05:49:59.010Z,107.57
2023-02-11T05:50:30.755Z,102.07
2023-02-11T05:51:02.522Z,92.93
2023-02-11T05:51:34.288Z,94.63
2023-02-11T05:52:06.168Z,90.33
2023-02-11T05:52:37.967Z,98.83
2023-02-11T05:53:09.994Z,131.00
2023-02-11T05:53:42.006Z,154.10
2023-02-11T05:54:13.832Z,156.77
2023-02-11T05:54:45.624Z,132.90
2023-02-11T05:55:17.496Z,125.93
2023-02-11T05:55:49.486Z,123.60
2023-02-11T05:56:21.575Z,117.33
2023-02-11T05:56:53.878Z,113.80
2023-02-11T05:57:25.704Z,104.30
2023-02-11T05:57:57.771Z,101.30
2023-02-11T05:58:29.594Z,104.17
2023-02-11T05:59:01.525Z,101.10
2023-02-11T05:59:33.377Z,96.43
2023-02-11T06:00:06.330Z,100.43
2023-02-11T06:00:38.302Z,101.07
2023-02-11T06:01:10.115Z,98.70
2023-02-11T06:01:42.384Z,99.77
2023-02-11T06:02:14.269Z,101.63
2023-02-11T06:02:46.099Z,102.60
2023-02-11T06:03:17.890Z,104.73
2023-02-11T06:03:51.557Z,103.93
2023-02-11T06:04:23.422Z,105.10
2023-02-11T06:04:55.315Z,106.97
2023-02-11T06:05:27.161Z,102.67
2023-02-11T06:05:58.953Z,102.60
2023-02-11T06:06:34.386Z,106.17
2023-02-11T06:07:06.254Z,108.87
2023-02-11T06:07:38.223Z,108.90
2023-02-11T06:08:10.075Z,107.57
2023-02-11T06:08:41.832Z,106.57
2023-02-11T06:09:13.560Z,113.60
2023-02-11T06:09:45.862Z,114.07
2023-02-11T06:10:17.963Z,108.27
2023-02-11T06:10:49.765Z,104.47
2023-02-11T06:11:21.539Z,98.33
2023-02-11T06:11:53.283Z,98.33
2023-02-11T06:12:25.224Z,97.80
2023-02-11T06:12:56.981Z,100.73
2023-02-11T06:13:28.697Z,102.67
2023-02-11T06:14:01.600Z,100.67
2023-02-11T06:14:34.292Z,100.30
2023-02-11T06:15:06.739Z,102.37
2023-02-11T06:15:38.542Z,108.50
2023-02-11T06:16:10.750Z,107.80
2023-02-11T06:16:42.557Z,107.70
2023-02-11T06:17:15.661Z,106.13
2023-02-11T06:17:47.576Z,107.23
2023-02-11T06:18:19.484Z,114.00
2023-02-11T06:18:51.350Z,114.60
2023-02-11T06:19:23.070Z,113.37
2023-02-11T06:19:54.804Z,111.77
2023-02-11T06:20:26.701Z,112.97
2023-02-11T06:20:58.457Z,113.90
2023-02-11T06:21:42.929Z,114.43
2023-02-11T06:22:15.575Z,112.93
2023-02-11T06:22:47.344Z,110.57
2023-02-11T06:23:19.177Z,107.17
2023-02-11T06:23:50.949Z,106.60
2023-02-11T06:24:47.707Z,105.53
2023-02-11T06:25:15.244Z,106.23
2023-02-11T06:25:47.175Z,108.70
2023-02-11T06:26:21.892Z,111.30
2023-02-11T06:26:53.694Z,102.97
2023-02-11T06:27:25.456Z,105.10
2023-02-11T06:27:57.540Z,104.27
2023-02-11T06:28:31.403Z,108.00
2023-02-11T06:29:03.755Z,413.13
2023-02-11T06:29:36.565Z,343.23
2023-02-11T06:30:09.167Z,424.20
2023-02-11T06:30:41.343Z,272.77
2023-02-11T06:31:13.411Z,217.03
2023-02-11T06:31:45.293Z,218.37
2023-02-11T06:32:39.431Z,201.70
2023-02-11T06:33:10.030Z,163.73
2023-02-11T06:33:42.424Z,177.57
2023-02-11T06:34:14.285Z,164.93
2023-02-11T06:34:46.566Z,154.23
2023-02-11T06:35:18.510Z,115.53
2023-02-11T06:35:50.438Z,113.80
2023-02-11T06:36:23.358Z,112.43
2023-02-11T06:36:55.219Z,110.07
2023-02-11T06:37:27.148Z,106.83
2023-02-11T06:37:59.473Z,106.13
2023-02-11T06:38:31.557Z,114.37
2023-02-11T06:39:03.879Z,114.90
2023-02-11T06:39:35.782Z,105.30
2023-02-11T06:40:07.881Z,100.27
2023-02-11T06:40:39.762Z,113.30
2023-02-11T06:41:13.319Z,123.63
2023-02-11T06:41:45.175Z,117.67
2023-02-11T06:42:17.447Z,107.97
2023-02-11T06:42:50.142Z,104.93
2023-02-11T06:43:22.330Z,111.83
2023-02-11T06:43:54.935Z,115.60
2023-02-11T06:44:29.088Z,116.77
2023-02-11T06:45:02.804Z,115.77
2023-02-11T06:45:34.639Z,115.00
2023-02-11T06:46:07.078Z,118.63
2023-02-11T06:46:39.302Z,118.87
2023-02-11T06:47:11.406Z,112.80
2023-02-11T06:47:43.270Z,113.67
2023-02-11T06:48:15.648Z,114.17
2023-02-11T06:48:47.465Z,115.43
2023-02-11T06:49:19.301Z,116.73
2023-02-11T06:49:51.040Z,115.23
2023-02-11T06:50:22.818Z,120.53
2023-02-11T06:50:54.649Z,116.50
2023-02-11T06:51:26.573Z,114.33
2023-02-11T06:51:58.305Z,116.97
2023-02-11T06:52:30.174Z,114.97
2023-02-11T06:53:02.058Z,115.90
2023-02-11T06:53:39.462Z,110.97
2023-02-11T06:54:13.050Z,109.17
2023-02-11T06:54:44.890Z,105.93
2023-02-11T06:55:16.910Z,104.00
2023-02-11T06:55:48.853Z,104.57
2023-02-11T06:56:23.488Z,104.37
2023-02-11T06:56:55.290Z,104.30
2023-02-11T06:57:26.999Z,107.83
2023-02-11T06:57:58.780Z,109.83
2023-02-11T06:58:30.587Z,106.77
2023-02-11T06:59:03.552Z,108.73
2023-02-11T06:59:35.306Z,117.53
2023-02-11T07:00:07.878Z,127.17
2023-02-11T07:00:39.718Z,130.23
2023-02-11T07:01:15.153Z,129.67
2023-02-11T07:01:47.893Z,128.63
2023-02-11T07:02:21.035Z,130.70
2023-02-11T07:02:53.102Z,128.30
2023-02-11T07:03:25.440Z,124.50
2023-02-11T07:03:57.401Z,125.80
2023-02-11T07:04:29.325Z,125.83
2023-02-11T07:05:01.634Z,126.63
2023-02-11T07:05:34.468Z,125.63
2023-02-11T07:06:08.319Z,119.60
2023-02-11T07:06:40.771Z,114.57
2023-02-11T07:07:12.566Z,111.53
2023-02-11T07:07:44.357Z,108.37
2023-02-11T07:08:16.249Z,108.97
2023-02-11T07:08:48.722Z,108.17
2023-02-11T07:09:20.819Z,109.17
2023-02-11T07:09:52.582Z,107.73
2023-02-11T07:10:24.356Z,115.47
2023-02-11T07:10:56.349Z,117.53
2023-02-11T07:11:30.185Z,118.23
2023-02-11T07:12:02.238Z,119.13
2023-02-11T07:12:34.104Z,116.93
2023-02-11T07:13:06.050Z,116.73
2023-02-11T07:13:38.008Z,111.90
2023-02-11T07:14:10.788Z,109.20
2023-02-11T07:14:42.788Z,109.23
2023-02-11T07:15:14.585Z,113.43
2023-02-11T07:15:46.497Z,108.60
2023-02-11T07:16:19.822Z,110.30
2023-02-11T07:16:51.843Z,114.40
2023-02-11T07:17:23.663Z,119.10
2023-02-11T07:17:55.443Z,122.13
2023-02-11T07:18:27.271Z,121.17
2023-02-11T07:18:59.151Z,116.90
2023-02-11T07:19:31.053Z,114.40
2023-02-11T07:20:03.636Z,115.17
2023-02-11T07:20:36.735Z,114.80
2023-02-11T07:21:11.814Z,117.13
2023-02-11T07:21:43.606Z,121.10
2023-02-11T07:22:15.462Z,121.20
2023-02-11T07:22:47.179Z,126.47
2023-02-11T07:23:18.938Z,127.50